Terminal Aerodrome Forecast
Issued by NWS North Platte, NE

Home | Current Version | Previous Version | Text Only | Print | Product List | Glossary Off
Versions: 1 2 3 4 5 6 7 8 9 10 11 12 13 14 15 16 17 18 19 20

000
FTUS43 KLBF 282300
TAFVTN
TAF
KVTN 282320Z 2900/2924 01010KT P6SM SCT070 BKN090
     FM290200 03009KT P6SM VCSH BKN060
     FM291200 07006KT P6SM BKN060
     FM291700 13012G18KT P6SM BKN070=

USA.gov is the U.S. government's official web portal to all federal, state and local government web resources and services.